createdAt,value
2022-10-17T00:00:55.351Z,100615.18
2022-10-17T00:03:43.265Z,100618.05
2022-10-17T00:06:30.875Z,100622.00
2022-10-17T00:09:18.896Z,100627.65
2022-10-17T00:12:06.654Z,100623.67
2022-10-17T00:14:54.245Z,100624.23
2022-10-17T00:17:42.215Z,100623.28
2022-10-17T00:20:30.672Z,100629.13
2022-10-17T00:23:18.679Z,100627.91
2022-10-17T00:26:06.401Z,100635.70
2022-10-17T00:28:54.161Z,100636.11
2022-10-17T00:31:42.002Z,100627.70
2022-10-17T00:34:31.241Z,100615.42
2022-10-17T00:37:18.818Z,100620.06
2022-10-17T00:40:07.583Z,100631.87
2022-10-17T00:42:55.202Z,100635.21
2022-10-17T00:45:43.097Z,100635.83
2022-10-17T00:48:33.533Z,100631.19
2022-10-17T00:51:32.276Z,100631.59
2022-10-17T00:54:25.595Z,100640.01
2022-10-17T00:57:14.172Z,100638.11
2022-10-17T01:00:07.286Z,100641.84
2022-10-17T01:02:56.019Z,100647.75
2022-10-17T01:05:44.225Z,100650.86
2022-10-17T01:08:31.911Z,100644.89
2022-10-17T01:11:33.044Z,100644.59
2022-10-17T01:14:26.708Z,100643.16
2022-10-17T01:17:55.362Z,100649.94
2022-10-17T01:21:14.647Z,100657.92
2022-10-17T01:24:41.911Z,100660.48
2022-10-17T01:27:47.164Z,100675.94
2022-10-17T01:30:59.097Z,100678.05
2022-10-17T01:33:57.114Z,100678.41
2022-10-17T01:37:06.421Z,100673.36
2022-10-17T01:39:57.894Z,100667.77
2022-10-17T01:42:57.407Z,100669.07
2022-10-17T01:46:02.869Z,100677.50
2022-10-17T01:48:50.836Z,100672.86
2022-10-17T01:51:46.217Z,100682.84
2022-10-17T01:54:45.693Z,100694.98
2022-10-17T01:57:42.607Z,100697.01
2022-10-17T02:00:31.430Z,100697.88
2022-10-17T02:03:22.011Z,100699.70
2022-10-17T02:06:09.847Z,100696.36
2022-10-17T02:08:57.328Z,100708.27
2022-10-17T02:12:15.269Z,100712.21
2022-10-17T02:15:54.562Z,100708.61
2022-10-17T02:19:20.527Z,100700.38
2022-10-17T02:22:26.426Z,100699.13
2022-10-17T02:25:39.019Z,100703.92
2022-10-17T02:29:13.782Z,100707.48
2022-10-17T02:32:08.685Z,100709.77
2022-10-17T02:34:58.658Z,100717.61
2022-10-17T02:37:48.522Z,100729.40
2022-10-17T02:40:38.153Z,100733.85
2022-10-17T02:43:26.183Z,100735.03
2022-10-17T02:46:22.763Z,100734.67
2022-10-17T02:49:36.738Z,100739.60
2022-10-17T02:52:39.200Z,100750.48
2022-10-17T02:55:36.603Z,100748.13
2022-10-17T02:58:31.197Z,100748.98
2022-10-17T03:01:19.985Z,100750.38
2022-10-17T03:04:15.073Z,100753.73
2022-10-17T03:07:03.461Z,100746.86
2022-10-17T03:09:51.147Z,100745.73
2022-10-17T03:12:39.037Z,100751.00
2022-10-17T03:15:28.403Z,100758.69
2022-10-17T03:18:16.174Z,100763.84
2022-10-17T03:21:05.684Z,100760.99
2022-10-17T03:23:53.877Z,100757.77
2022-10-17T03:26:42.426Z,100763.58
2022-10-17T03:29:30.586Z,100763.37
2022-10-17T03:32:18.741Z,100758.75
2022-10-17T03:35:07.689Z,100762.45
2022-10-17T03:37:57.304Z,100766.26
2022-10-17T03:40:45.136Z,100763.10
2022-10-17T03:43:35.821Z,100765.31
2022-10-17T03:46:23.708Z,100765.31
2022-10-17T03:49:12.076Z,100765.20
2022-10-17T03:52:00.150Z,100767.33
2022-10-17T03:54:51.336Z,100760.34
2022-10-17T03:57:42.135Z,100763.55
2022-10-17T04:00:33.033Z,100763.47
2022-10-17T04:03:20.811Z,100776.89
2022-10-17T04:06:12.200Z,100782.04
2022-10-17T04:09:00.544Z,100788.45
2022-10-17T04:12:03.733Z,100793.60
2022-10-17T04:14:51.663Z,100792.67
2022-10-17T04:17:39.395Z,100797.03
2022-10-17T04:20:27.131Z,100798.14
2022-10-17T04:23:14.935Z,100794.39
2022-10-17T04:26:04.179Z,100790.57
2022-10-17T04:28:52.374Z,100794.65
2022-10-17T04:31:40.339Z,100807.65
2022-10-17T04:34:35.152Z,100799.83
2022-10-17T04:37:22.751Z,100796.74
2022-10-17T04:40:14.128Z,100795.69
2022-10-17T04:43:01.682Z,100786.13
2022-10-17T04:45:54.460Z,100801.80
2022-10-17T04:48:42.745Z,100809.77
2022-10-17T04:51:31.235Z,100812.20
2022-10-17T04:54:34.783Z,100807.13
2022-10-17T04:57:30.218Z,100810.17
2022-10-17T05:00:24.513Z,100819.20
2022-10-17T05:03:21.390Z,100818.42
2022-10-17T05:06:16.566Z,100802.74
2022-10-17T05:09:06.271Z,100802.17
2022-10-17T05:11:54.585Z,100806.63
2022-10-17T05:14:42.412Z,100803.30
2022-10-17T05:17:29.874Z,100809.56
2022-10-17T05:20:17.390Z,100816.40
2022-10-17T05:23:05.072Z,100816.08
2022-10-17T05:25:55.986Z,100814.86
2022-10-17T05:28:44.778Z,100818.46
2022-10-17T05:31:32.830Z,100830.27
2022-10-17T05:34:20.544Z,100831.67
2022-10-17T05:37:08.720Z,100833.02
2022-10-17T05:39:57.152Z,100839.34
2022-10-17T05:42:49.272Z,100841.34
2022-10-17T05:45:38.233Z,100836.79
2022-10-17T05:48:27.487Z,100841.46
2022-10-17T05:51:15.862Z,100834.92
2022-10-17T05:54:07.086Z,100834.15
2022-10-17T05:56:56.929Z,100838.83
2022-10-17T05:59:47.444Z,100833.61
2022-10-17T06:02:39.540Z,100831.98
2022-10-17T06:05:27.446Z,100832.99
2022-10-17T06:08:15.493Z,100840.89
2022-10-17T06:11:07.506Z,100838.00
2022-10-17T06:13:57.771Z,100841.16
2022-10-17T06:16:49.110Z,100849.13
2022-10-17T06:19:37.027Z,100856.04
2022-10-17T06:22:25.037Z,100859.95
2022-10-17T06:25:12.980Z,100859.03
2022-10-17T06:28:00.865Z,100858.00
2022-10-17T06:30:49.077Z,100865.86
2022-10-17T06:33:36.924Z,100867.17
2022-10-17T06:36:25.643Z,100871.66
2022-10-17T06:39:13.568Z,100874.90
2022-10-17T06:42:06.447Z,100885.12
2022-10-17T06:45:06.458Z,100887.23
2022-10-17T06:48:12.285Z,100885.42
2022-10-17T06:51:22.827Z,100886.10
2022-10-17T06:54:15.394Z,100889.96
2022-10-17T06:57:10.288Z,100891.08
2022-10-17T07:00:23.448Z,100896.60
2022-10-17T07:03:13.914Z,100897.52
2022-10-17T07:06:02.225Z,100898.56
2022-10-17T07:08:50.601Z,100898.27
2022-10-17T07:11:40.372Z,100902.84
2022-10-17T07:14:32.267Z,100893.16
2022-10-17T07:17:20.351Z,100885.71
2022-10-17T07:20:09.194Z,100878.46
2022-10-17T07:22:58.470Z,100888.75
2022-10-17T07:25:46.107Z,100883.77
2022-10-17T07:28:40.504Z,100879.86
2022-10-17T07:31:41.051Z,100878.86
2022-10-17T07:34:31.483Z,100875.02
2022-10-17T07:37:19.610Z,100880.29
2022-10-17T07:40:13.435Z,100882.63
2022-10-17T07:43:01.233Z,100883.95
2022-10-17T07:45:49.005Z,100886.59
2022-10-17T07:48:36.734Z,100882.49
2022-10-17T07:51:24.985Z,100882.92
2022-10-17T07:54:12.492Z,100882.04
2022-10-17T07:57:00.545Z,100886.26
2022-10-17T07:59:48.425Z,100896.69
2022-10-17T08:02:35.776Z,100898.66
2022-10-17T08:05:23.747Z,100901.91
2022-10-17T08:08:11.544Z,100898.16
2022-10-17T08:11:07.432Z,100900.09
2022-10-17T08:13:54.992Z,100904.16
2022-10-17T08:16:43.367Z,100903.31
2022-10-17T08:19:30.725Z,100890.30
2022-10-17T08:22:19.034Z,100883.67
2022-10-17T08:25:07.728Z,100882.85
2022-10-17T08:27:55.675Z,100882.69
2022-10-17T08:30:43.651Z,100880.69
2022-10-17T08:33:32.191Z,100879.32
2022-10-17T08:36:21.220Z,100879.70
2022-10-17T08:39:09.260Z,100877.04
2022-10-17T08:42:06.028Z,100875.79
2022-10-17T08:45:27.609Z,100875.77
2022-10-17T08:48:21.125Z,100871.83
2022-10-17T08:51:30.350Z,100871.55
2022-10-17T08:54:41.200Z,100869.80
2022-10-17T08:57:29.398Z,100868.90
2022-10-17T09:00:22.600Z,100872.50
2022-10-17T09:03:44.190Z,100869.50
2022-10-17T09:06:43.413Z,100873.13
2022-10-17T09:09:40.474Z,100863.16
2022-10-17T09:13:16.665Z,100868.40
2022-10-17T09:16:37.456Z,100867.56
2022-10-17T09:19:40.719Z,100862.19
2022-10-17T09:22:38.096Z,100852.35
2022-10-17T09:25:28.512Z,100853.25
2022-10-17T09:28:27.354Z,100862.74
2022-10-17T09:31:23.845Z,100860.66
2022-10-17T09:34:14.795Z,100866.09
2022-10-17T09:37:03.676Z,100864.98
2022-10-17T09:39:51.552Z,100857.75
2022-10-17T09:42:39.974Z,100849.67
2022-10-17T09:45:31.369Z,100844.25
2022-10-17T09:48:26.571Z,100849.06
2022-10-17T09:51:25.651Z,100856.19
2022-10-17T09:54:27.768Z,100855.48
2022-10-17T09:57:17.858Z,100853.42
2022-10-17T10:00:20.484Z,100845.48
2022-10-17T10:03:26.411Z,100850.77
2022-10-17T10:06:20.447Z,100854.31
2022-10-17T10:09:41.244Z,100855.45
2022-10-17T10:12:39.876Z,100849.23
2022-10-17T10:15:42.436Z,100846.49
2022-10-17T10:18:36.569Z,100846.19
2022-10-17T10:21:27.128Z,100843.82
2022-10-17T10:24:15.145Z,100841.33
2022-10-17T10:27:04.383Z,100835.33
2022-10-17T10:29:53.537Z,100834.38
2022-10-17T10:32:48.025Z,100834.89
2022-10-17T10:35:37.847Z,100836.16
2022-10-17T10:38:25.766Z,100833.95
2022-10-17T10:41:13.754Z,100831.02
2022-10-17T10:44:01.973Z,100832.80
2022-10-17T10:47:07.411Z,100829.77
2022-10-17T10:50:31.606Z,100829.27
2022-10-17T10:53:35.655Z,100826.14
2022-10-17T10:56:31.807Z,100829.73
2022-10-17T10:59:26.340Z,100821.09
2022-10-17T11:02:16.394Z,100819.34
2022-10-17T11:05:21.228Z,100815.26
2022-10-17T11:08:17.688Z,100811.52
2022-10-17T11:11:18.380Z,100809.27
2022-10-17T11:14:21.445Z,100807.17
2022-10-17T11:17:29.051Z,100803.96
2022-10-17T11:20:59.886Z,100797.85
2022-10-17T11:24:14.524Z,100788.41
2022-10-17T11:27:06.236Z,100779.83
2022-10-17T11:29:53.883Z,100781.30
2022-10-17T11:33:03.297Z,100771.63
2022-10-17T11:35:53.155Z,100768.30
2022-10-17T11:38:50.460Z,100772.75
2022-10-17T11:41:55.875Z,100765.50
2022-10-17T11:44:44.758Z,100757.55
2022-10-17T11:47:46.079Z,100755.41
2022-10-17T11:54:25.143Z,100748.75
2022-10-17T11:57:30.646Z,100742.88
2022-10-17T12:00:58.233Z,100739.23
2022-10-17T12:03:48.957Z,100735.40
2022-10-17T12:07:01.190Z,100725.95
2022-10-17T12:10:22.754Z,100724.14
2022-10-17T12:13:49.436Z,100721.54
2022-10-17T12:16:39.623Z,100720.45
2022-10-17T12:19:36.950Z,100712.09
2022-10-17T12:22:26.384Z,100714.45
2022-10-17T12:25:22.953Z,100716.23
2022-10-17T12:28:13.317Z,100717.74
2022-10-17T12:31:16.412Z,100712.60
2022-10-17T12:34:05.725Z,100707.88
2022-10-17T12:36:53.359Z,100705.01
2022-10-17T12:39:42.879Z,100696.62
2022-10-17T12:42:32.992Z,100683.44
2022-10-17T12:45:52.574Z,100675.43
2022-10-17T12:48:40.602Z,100667.80
2022-10-17T12:51:35.810Z,100662.61
2022-10-17T12:54:24.165Z,100658.34
2022-10-17T12:57:56.727Z,100659.70
2022-10-17T13:01:11.855Z,100659.66
2022-10-17T13:04:06.627Z,100655.91
2022-10-17T13:07:01.094Z,100659.84
2022-10-17T13:09:50.768Z,100657.34
2022-10-17T13:12:41.146Z,100658.73
2022-10-17T13:15:29.150Z,100656.49
2022-10-17T13:18:35.455Z,100647.27
2022-10-17T13:21:23.683Z,100642.25
2022-10-17T13:24:31.666Z,100642.24
2022-10-17T13:27:31.289Z,100641.59
2022-10-17T13:30:35.276Z,100640.75
2022-10-17T13:33:39.651Z,100627.23
2022-10-17T13:36:29.519Z,100611.93
2022-10-17T13:39:38.207Z,100608.81
2022-10-17T13:42:38.521Z,100609.81
2022-10-17T13:45:37.171Z,100603.02
2022-10-17T13:48:30.759Z,100592.38
2022-10-17T13:51:18.642Z,100592.30
2022-10-17T13:54:40.493Z,100588.67
2022-10-17T13:57:31.974Z,100581.75
2022-10-17T14:00:23.057Z,100578.63
2022-10-17T14:03:11.430Z,100572.31
2022-10-17T14:06:04.890Z,100570.92
2022-10-17T14:08:52.313Z,100572.08
2022-10-17T14:11:44.633Z,100573.57
2022-10-17T14:14:51.672Z,100568.19
2022-10-17T14:17:40.407Z,100569.82
2022-10-17T14:23:41.593Z,100563.42
2022-10-17T14:26:29.674Z,100565.09
2022-10-17T14:29:30.832Z,100560.55
2022-10-17T14:32:19.638Z,100556.41
2022-10-17T14:35:40.359Z,100552.48
2022-10-17T14:38:25.120Z,100552.52
2022-10-17T14:41:44.281Z,100553.98
2022-10-17T14:44:36.124Z,100556.84
2022-10-17T14:47:42.802Z,100560.52
2022-10-17T14:50:33.420Z,100562.10
2022-10-17T14:53:21.942Z,100564.61
2022-10-17T14:56:40.763Z,100555.73
2022-10-17T15:02:36.305Z,100542.61
2022-10-17T15:05:24.163Z,100537.05
2022-10-17T15:08:17.730Z,100533.42
2022-10-17T15:11:05.815Z,100536.41
2022-10-17T15:13:53.543Z,100530.29
2022-10-17T15:16:41.383Z,100531.18
2022-10-17T15:19:29.214Z,100528.58
2022-10-17T15:22:18.315Z,100527.96
2022-10-17T15:25:06.933Z,100525.98
2022-10-17T15:27:55.833Z,100521.58
2022-10-17T15:30:43.126Z,100518.29
2022-10-17T15:33:30.871Z,100519.18
2022-10-17T15:36:42.908Z,100514.42
2022-10-17T15:39:30.731Z,100512.94
2022-10-17T15:42:29.840Z,100516.49
2022-10-17T15:45:44.149Z,100521.73
2022-10-17T15:48:52.699Z,100520.61
2022-10-17T15:51:42.031Z,100528.80
2022-10-17T15:54:30.083Z,100525.17
2022-10-17T15:57:24.071Z,100528.03
2022-10-17T16:00:25.072Z,100528.71
2022-10-17T16:03:14.344Z,100519.02
2022-10-17T16:06:02.951Z,100516.63
2022-10-17T16:08:52.148Z,100515.48
2022-10-17T16:11:45.600Z,100511.06
2022-10-17T16:14:37.332Z,100506.86
2022-10-17T16:17:27.009Z,100503.91
2022-10-17T16:20:18.702Z,100506.86
2022-10-17T16:23:08.579Z,100507.66
2022-10-17T16:25:55.941Z,100500.80
2022-10-17T16:28:46.224Z,100500.41
2022-10-17T16:31:36.869Z,100499.41
2022-10-17T16:34:24.833Z,100498.08
2022-10-17T16:37:12.569Z,100493.95
2022-10-17T16:40:00.782Z,100490.67
2022-10-17T16:42:48.941Z,100491.19
2022-10-17T16:45:40.829Z,100492.02
2022-10-17T16:48:29.814Z,100488.05
2022-10-17T16:51:20.330Z,100482.16
2022-10-17T16:54:10.177Z,100483.91
2022-10-17T16:57:06.761Z,100478.05
2022-10-17T16:59:55.353Z,100475.24
2022-10-17T17:02:45.131Z,100472.64
2022-10-17T17:05:46.136Z,100476.36
2022-10-17T17:08:39.741Z,100469.78
2022-10-17T17:11:32.510Z,100457.30
2022-10-17T17:14:19.884Z,100456.25
2022-10-17T17:17:12.322Z,100457.50
2022-10-17T17:20:07.405Z,100456.75
2022-10-17T17:22:55.272Z,100454.95
2022-10-17T17:25:46.576Z,100452.60
2022-10-17T17:28:35.734Z,100448.04
2022-10-17T17:31:27.495Z,100445.91
2022-10-17T17:34:18.212Z,100442.79
2022-10-17T17:37:06.916Z,100442.77
2022-10-17T17:39:55.011Z,100440.84
2022-10-17T17:42:42.798Z,100439.71
2022-10-17T17:45:30.478Z,100432.64
2022-10-17T17:48:18.794Z,100435.30
2022-10-17T17:51:15.496Z,100431.25
2022-10-17T17:54:05.318Z,100434.95
2022-10-17T17:56:53.455Z,100429.45
2022-10-17T17:59:41.614Z,100425.13
2022-10-17T18:02:29.750Z,100427.54
2022-10-17T18:05:18.152Z,100421.70
2022-10-17T18:08:06.102Z,100416.23
2022-10-17T18:10:56.606Z,100414.54
2022-10-17T18:13:44.895Z,100408.62
2022-10-17T18:16:34.826Z,100405.52
2022-10-17T18:19:23.916Z,100412.98
2022-10-17T18:22:12.142Z,100407.13
2022-10-17T18:25:00.089Z,100405.64
2022-10-17T18:27:48.451Z,100398.06
2022-10-17T18:30:40.104Z,100397.61
2022-10-17T18:33:28.226Z,100400.71
2022-10-17T18:36:18.238Z,100405.02
2022-10-17T18:39:13.907Z,100407.54
2022-10-17T18:42:06.648Z,100409.77
2022-10-17T18:44:54.430Z,100406.95
2022-10-17T18:47:48.014Z,100402.09
2022-10-17T18:50:39.016Z,100407.41
2022-10-17T18:53:26.734Z,100400.02
2022-10-17T18:56:16.142Z,100400.16
2022-10-17T18:59:04.266Z,100401.46
2022-10-17T19:01:52.340Z,100397.48
2022-10-17T19:04:40.700Z,100396.17
2022-10-17T19:07:28.818Z,100392.00
2022-10-17T19:10:18.243Z,100388.70
2022-10-17T19:13:08.799Z,100382.27
2022-10-17T19:15:58.172Z,100385.79
2022-10-17T19:18:57.498Z,100387.80
2022-10-17T19:21:46.032Z,100382.80
2022-10-17T19:24:36.440Z,100385.84
2022-10-17T19:27:23.998Z,100381.90
2022-10-17T19:30:12.763Z,100378.14
2022-10-17T19:33:00.702Z,100371.56
2022-10-17T19:36:00.425Z,100370.06
2022-10-17T19:38:49.638Z,100369.31
2022-10-17T19:41:41.238Z,100368.52
2022-10-17T19:44:29.252Z,100363.29
2022-10-17T19:47:17.519Z,100362.53
2022-10-17T19:50:06.940Z,100363.80
2022-10-17T19:52:59.036Z,100366.15
2022-10-17T19:56:16.730Z,100362.62
2022-10-17T19:59:57.026Z,100363.95
2022-10-17T20:02:49.570Z,100362.00
2022-10-17T20:05:37.999Z,100360.31
2022-10-17T20:11:23.583Z,100359.54
2022-10-17T20:14:09.984Z,100358.88
2022-10-17T20:16:56.582Z,100355.11
2022-10-17T20:19:42.904Z,100355.14
2022-10-17T20:22:29.452Z,100357.20
2022-10-17T20:25:16.323Z,100361.73
2022-10-17T20:28:02.666Z,100361.80
2022-10-17T20:30:49.258Z,100365.67
2022-10-17T20:33:35.714Z,100372.39
2022-10-17T20:36:22.905Z,100370.54
2022-10-17T20:39:14.346Z,100375.80
2022-10-17T20:42:01.897Z,100374.92
2022-10-17T20:44:48.342Z,100379.27
2022-10-17T20:47:45.997Z,100381.60
2022-10-17T20:50:39.609Z,100375.89
2022-10-17T20:53:36.521Z,100371.95
2022-10-17T20:56:28.102Z,100372.94
2022-10-17T20:59:16.701Z,100369.63
2022-10-17T21:02:05.689Z,100369.15
2022-10-17T21:04:51.849Z,100368.20
2022-10-17T21:07:38.210Z,100365.01
2022-10-17T21:10:35.045Z,100364.56
2022-10-17T21:13:21.701Z,100361.79
2022-10-17T21:16:18.144Z,100367.15
2022-10-17T21:19:05.696Z,100372.04
2022-10-17T21:21:52.166Z,100371.27
2022-10-17T21:24:38.753Z,100374.56
2022-10-17T21:27:25.531Z,100375.48
2022-10-17T21:30:12.017Z,100369.92
2022-10-17T21:32:58.923Z,100369.41
2022-10-17T21:35:45.474Z,100364.15
2022-10-17T21:38:34.286Z,100369.17
2022-10-17T21:41:34.730Z,100371.83
2022-10-17T21:44:37.460Z,100371.52
2022-10-17T21:47:31.909Z,100370.00
2022-10-17T21:50:25.328Z,100376.14
2022-10-17T21:53:12.996Z,100377.28
2022-10-17T21:56:04.823Z,100372.39
2022-10-17T21:58:53.090Z,100374.36
2022-10-17T22:01:43.063Z,100383.71
2022-10-17T22:04:29.374Z,100386.52
2022-10-17T22:07:15.905Z,100389.42
2022-10-17T22:10:03.188Z,100387.42
2022-10-17T22:12:49.478Z,100394.09
2022-10-17T22:15:36.047Z,100402.83
2022-10-17T22:18:22.535Z,100405.69
2022-10-17T22:21:20.232Z,100409.73
2022-10-17T22:24:11.686Z,100409.59
2022-10-17T22:26:58.086Z,100407.88
2022-10-17T22:29:44.625Z,100410.00
2022-10-17T22:32:30.569Z,100407.33
2022-10-17T22:35:16.795Z,100408.54
2022-10-17T22:38:03.005Z,100404.49
2022-10-17T22:40:49.743Z,100396.10
2022-10-17T22:43:36.025Z,100393.95
2022-10-17T22:46:22.860Z,100399.05
2022-10-17T22:49:09.282Z,100400.98
2022-10-17T22:51:55.556Z,100404.05
2022-10-17T22:54:42.226Z,100399.45
2022-10-17T22:57:28.743Z,100398.12
2022-10-17T23:00:17.241Z,100399.52
2022-10-17T23:03:03.484Z,100390.86
2022-10-17T23:05:50.443Z,100391.27
2022-10-17T23:08:37.187Z,100399.77
2022-10-17T23:11:23.354Z,100402.86
2022-10-17T23:14:09.373Z,100409.06
2022-10-17T23:16:55.840Z,100403.40
2022-10-17T23:19:42.518Z,100410.30
2022-10-17T23:22:29.123Z,100410.71
2022-10-17T23:25:15.758Z,100412.55
2022-10-17T23:28:02.470Z,100407.52
2022-10-17T23:30:48.441Z,100406.69
2022-10-17T23:33:34.433Z,100407.65
2022-10-17T23:36:21.315Z,100411.16
2022-10-17T23:39:08.683Z,100414.77
2022-10-17T23:41:54.746Z,100411.77
2022-10-17T23:44:41.412Z,100406.73
2022-10-17T23:47:28.267Z,100411.14
2022-10-17T23:50:15.790Z,100418.10
2022-10-17T23:53:01.764Z,100418.40
2022-10-17T23:55:48.597Z,100425.49
2022-10-17T23:58:35.481Z,100422.96
